sensor_id;sensor_type;location;lat;lon;timestamp;pressure;altitude;pressure_sealevel;temperature;humidity
929;BME280;451;47.988;7.842;2023-07-31T00:04:21;98620.31;;;17.29;96.51
929;BME280;451;47.988;7.842;2023-07-31T00:13:24;98603.00;;;16.94;98.59
929;BME280;451;47.988;7.842;2023-07-31T00:22:28;98609.75;;;16.97;99.76
929;BME280;451;47.988;7.842;2023-07-31T00:31:32;98602.00;;;16.95;100.00
929;BME280;451;47.988;7.842;2023-07-31T00:40:36;98611.03;;;16.68;100.00
929;BME280;451;47.988;7.842;2023-07-31T00:49:40;98611.41;;;16.51;100.00
929;BME280;451;47.988;7.842;2023-07-31T00:58:45;98610.22;;;16.61;100.00
929;BME280;451;47.988;7.842;2023-07-31T01:07:53;98594.28;;;16.74;100.00
929;BME280;451;47.988;7.842;2023-07-31T01:16:59;98583.66;;;16.47;100.00
929;BME280;451;47.988;7.842;2023-07-31T01:26:11;98561.22;;;16.30;100.00
929;BME280;451;47.988;7.842;2023-07-31T01:35:15;98576.28;;;16.49;100.00
929;BME280;451;47.988;7.842;2023-07-31T01:44:22;98563.63;;;16.32;100.00
929;BME280;451;47.988;7.842;2023-07-31T01:53:25;98550.16;;;16.13;100.00
929;BME280;451;47.988;7.842;2023-07-31T02:02:29;98428.94;;;15.28;100.00
929;BME280;451;47.988;7.842;2023-07-31T02:11:33;98556.28;;;16.14;100.00
929;BME280;451;47.988;7.842;2023-07-31T02:20:38;98517.72;;;15.92;100.00
929;BME280;451;47.988;7.842;2023-07-31T02:29:41;98539.97;;;16.04;100.00
929;BME280;451;47.988;7.842;2023-07-31T02:38:46;98523.44;;;16.02;100.00
929;BME280;451;47.988;7.842;2023-07-31T02:47:49;98504.81;;;15.62;100.00
929;BME280;451;47.988;7.842;2023-07-31T02:56:53;98491.38;;;15.57;100.00
929;BME280;451;47.988;7.842;2023-07-31T03:05:57;98553.81;;;15.80;100.00
929;BME280;451;47.988;7.842;2023-07-31T03:15:02;98543.22;;;15.80;100.00
929;BME280;451;47.988;7.842;2023-07-31T03:24:05;98518.50;;;15.59;100.00
929;BME280;451;47.988;7.842;2023-07-31T03:33:11;98531.00;;;15.98;100.00
929;BME280;451;47.988;7.842;2023-07-31T03:42:14;98522.03;;;15.93;100.00
929;BME280;451;47.988;7.842;2023-07-31T03:51:18;98498.72;;;15.75;100.00
929;BME280;451;47.988;7.842;2023-07-31T04:00:22;98512.44;;;15.98;100.00
929;BME280;451;47.988;7.842;2023-07-31T04:09:26;98532.19;;;15.96;100.00
929;BME280;451;47.988;7.842;2023-07-31T04:18:29;98525.69;;;16.11;100.00
929;BME280;451;47.988;7.842;2023-07-31T04:27:35;98534.25;;;16.07;99.77
929;BME280;451;47.988;7.842;2023-07-31T04:36:38;98544.88;;;16.40;96.81
929;BME280;451;47.988;7.842;2023-07-31T04:45:45;98534.06;;;16.68;95.57
929;BME280;451;47.988;7.842;2023-07-31T04:54:50;98526.00;;;16.94;93.37
929;BME280;451;47.988;7.842;2023-07-31T05:03:54;98540.22;;;17.19;91.56
929;BME280;451;47.988;7.842;2023-07-31T05:12:57;98543.72;;;17.58;86.93
929;BME280;451;47.988;7.842;2023-07-31T05:22:02;98501.78;;;17.60;84.48
929;BME280;451;47.988;7.842;2023-07-31T05:31:06;98537.41;;;17.90;80.83
929;BME280;451;47.988;7.842;2023-07-31T05:40:11;98535.91;;;18.26;79.30
929;BME280;451;47.988;7.842;2023-07-31T05:49:14;98549.72;;;18.41;76.55
929;BME280;451;47.988;7.842;2023-07-31T05:58:18;98521.75;;;18.50;76.76
929;BME280;451;47.988;7.842;2023-07-31T06:07:22;98500.28;;;18.70;74.34
929;BME280;451;47.988;7.842;2023-07-31T06:16:26;98493.16;;;19.18;74.21
929;BME280;451;47.988;7.842;2023-07-31T06:25:29;98525.28;;;19.71;71.64
929;BME280;451;47.988;7.842;2023-07-31T06:34:34;98486.31;;;19.41;73.06
929;BME280;451;47.988;7.842;2023-07-31T06:43:37;98492.44;;;19.59;70.97
929;BME280;451;47.988;7.842;2023-07-31T06:52:41;98524.38;;;19.78;70.39
929;BME280;451;47.988;7.842;2023-07-31T07:01:45;98510.47;;;20.40;65.28
929;BME280;451;47.988;7.842;2023-07-31T07:10:49;98531.03;;;20.51;66.93
929;BME280;451;47.988;7.842;2023-07-31T07:19:53;98434.28;;;19.20;66.71
929;BME280;451;47.988;7.842;2023-07-31T07:28:59;98482.44;;;20.31;66.57
929;BME280;451;47.988;7.842;2023-07-31T07:38:03;98477.53;;;20.98;65.78
929;BME280;451;47.988;7.842;2023-07-31T07:47:08;98444.09;;;20.84;65.08
929;BME280;451;47.988;7.842;2023-07-31T07:56:11;98467.41;;;21.85;60.59
929;BME280;451;47.988;7.842;2023-07-31T08:05:16;98469.66;;;21.93;58.32
929;BME280;451;47.988;7.842;2023-07-31T08:14:20;98495.00;;;22.36;59.69
929;BME280;451;47.988;7.842;2023-07-31T08:23:24;98477.97;;;22.25;59.89
929;BME280;451;47.988;7.842;2023-07-31T08:32:28;98451.06;;;22.37;59.30
929;BME280;451;47.988;7.842;2023-07-31T08:41:37;98457.25;;;22.37;59.67
929;BME280;451;47.988;7.842;2023-07-31T08:50:40;98472.44;;;22.48;57.20
929;BME280;451;47.988;7.842;2023-07-31T08:59:45;98448.03;;;22.50;58.23
929;BME280;451;47.988;7.842;2023-07-31T09:08:49;98430.44;;;23.46;57.77
929;BME280;451;47.988;7.842;2023-07-31T09:18:00;98423.09;;;24.32;53.23
929;BME280;451;47.988;7.842;2023-07-31T09:27:05;98416.16;;;24.99;52.57
929;BME280;451;47.988;7.842;2023-07-31T09:36:10;98381.94;;;26.66;49.33
929;BME280;451;47.988;7.842;2023-07-31T09:45:14;98380.94;;;26.37;48.33
929;BME280;451;47.988;7.842;2023-07-31T09:54:19;98298.06;;;25.12;50.74
929;BME280;451;47.988;7.842;2023-07-31T10:03:27;98363.03;;;24.69;52.46
929;BME280;451;47.988;7.842;2023-07-31T10:12:34;98333.59;;;25.14;50.96
929;BME280;451;47.988;7.842;2023-07-31T10:21:37;98336.28;;;25.90;49.78
929;BME280;451;47.988;7.842;2023-07-31T10:30:42;98339.31;;;26.63;49.17
929;BME280;451;47.988;7.842;2023-07-31T10:39:55;98324.44;;;25.96;50.62
929;BME280;451;47.988;7.842;2023-07-31T10:49:01;98248.56;;;24.98;49.34
929;BME280;451;47.988;7.842;2023-07-31T10:58:06;98318.78;;;25.83;48.08
929;BME280;451;47.988;7.842;2023-07-31T11:07:11;98317.19;;;25.61;49.48
929;BME280;451;47.988;7.842;2023-07-31T11:16:15;98322.31;;;25.22;50.01
929;BME280;451;47.988;7.842;2023-07-31T11:25:22;98293.78;;;25.57;52.67
929;BME280;451;47.988;7.842;2023-07-31T11:34:25;98304.78;;;25.81;50.63
929;BME280;451;47.988;7.842;2023-07-31T11:43:31;98317.22;;;26.56;49.41
929;BME280;451;47.988;7.842;2023-07-31T11:52:38;98171.25;;;26.29;47.84
929;BME280;451;47.988;7.842;2023-07-31T12:01:44;98262.47;;;27.34;47.06
929;BME280;451;47.988;7.842;2023-07-31T12:10:50;98234.19;;;27.26;47.08
929;BME280;451;47.988;7.842;2023-07-31T12:19:54;98206.22;;;27.69;47.37
929;BME280;451;47.988;7.842;2023-07-31T12:28:57;98213.22;;;27.47;47.33
929;BME280;451;47.988;7.842;2023-07-31T12:38:02;98199.84;;;26.64;47.47
929;BME280;451;47.988;7.842;2023-07-31T12:47:05;98188.03;;;26.94;48.44
929;BME280;451;47.988;7.842;2023-07-31T12:56:10;98149.75;;;27.20;47.13
929;BME280;451;47.988;7.842;2023-07-31T13:05:13;98153.53;;;27.43;47.69
929;BME280;451;47.988;7.842;2023-07-31T13:14:18;98076.34;;;27.42;46.27
929;BME280;451;47.988;7.842;2023-07-31T13:23:23;98146.56;;;26.84;47.95
929;BME280;451;47.988;7.842;2023-07-31T13:32:27;98131.31;;;27.27;46.65
929;BME280;451;47.988;7.842;2023-07-31T13:41:30;98120.66;;;27.84;46.73
929;BME280;451;47.988;7.842;2023-07-31T13:50:35;98115.31;;;28.21;46.11
929;BME280;451;47.988;7.842;2023-07-31T13:59:38;98100.03;;;28.81;45.77
929;BME280;451;47.988;7.842;2023-07-31T14:08:43;98081.63;;;28.65;45.37
929;BME280;451;47.988;7.842;2023-07-31T14:17:49;98076.53;;;28.44;45.67
929;BME280;451;47.988;7.842;2023-07-31T14:26:54;98068.59;;;29.54;44.81
929;BME280;451;47.988;7.842;2023-07-31T14:35:58;98070.22;;;28.17;45.57
929;BME280;451;47.988;7.842;2023-07-31T14:45:05;98056.97;;;28.34;45.50
929;BME280;451;47.988;7.842;2023-07-31T14:54:08;98058.34;;;28.96;44.05
929;BME280;451;47.988;7.842;2023-07-31T15:03:13;98062.25;;;28.25;45.38
929;BME280;451;47.988;7.842;2023-07-31T15:12:16;98016.88;;;28.22;45.14
929;BME280;451;47.988;7.842;2023-07-31T15:21:21;98021.56;;;27.60;46.97
929;BME280;451;47.988;7.842;2023-07-31T15:30:24;98011.84;;;27.97;45.40
929;BME280;451;47.988;7.842;2023-07-31T15:39:28;98010.91;;;27.26;46.91
929;BME280;451;47.988;7.842;2023-07-31T15:48:31;97994.53;;;27.79;45.64
929;BME280;451;47.988;7.842;2023-07-31T15:57:36;98005.31;;;27.18;46.33
929;BME280;451;47.988;7.842;2023-07-31T16:06:39;98033.31;;;26.74;48.79
929;BME280;451;47.988;7.842;2023-07-31T16:15:44;97947.75;;;25.59;52.13
929;BME280;451;47.988;7.842;2023-07-31T16:24:47;98002.75;;;26.55;53.80
929;BME280;451;47.988;7.842;2023-07-31T16:33:51;97976.84;;;26.59;52.37
929;BME280;451;47.988;7.842;2023-07-31T16:42:54;97937.34;;;27.16;51.38
929;BME280;451;47.988;7.842;2023-07-31T16:51:59;97956.41;;;25.90;54.86
929;BME280;451;47.988;7.842;2023-07-31T17:01:03;97943.81;;;26.15;54.40
929;BME280;451;47.988;7.842;2023-07-31T17:10:08;97910.81;;;26.75;52.71
929;BME280;451;47.988;7.842;2023-07-31T17:19:11;97910.44;;;26.39;54.05
929;BME280;451;47.988;7.842;2023-07-31T17:28:16;97947.75;;;25.93;53.67
929;BME280;451;47.988;7.842;2023-07-31T17:37:19;97903.25;;;24.64;56.40
929;BME280;451;47.988;7.842;2023-07-31T17:46:23;97930.50;;;25.11;57.36
929;BME280;451;47.988;7.842;2023-07-31T17:55:27;97911.41;;;24.18;62.45
929;BME280;451;47.988;7.842;2023-07-31T18:04:31;97926.44;;;24.44;61.99
929;BME280;451;47.988;7.842;2023-07-31T18:13:34;97927.97;;;24.71;61.68
929;BME280;451;47.988;7.842;2023-07-31T18:22:39;97920.38;;;24.88;59.40
929;BME280;451;47.988;7.842;2023-07-31T18:31:42;97907.53;;;24.70;59.22
929;BME280;451;47.988;7.842;2023-07-31T18:40:46;97822.75;;;24.13;58.84
929;BME280;451;47.988;7.842;2023-07-31T18:49:50;97917.34;;;24.35;60.51
929;BME280;451;47.988;7.842;2023-07-31T18:58:54;97898.53;;;24.35;59.47
929;BME280;451;47.988;7.842;2023-07-31T19:07:57;97791.94;;;23.95;59.83
929;BME280;451;47.988;7.842;2023-07-31T19:17:07;97862.78;;;24.15;60.21
929;BME280;451;47.988;7.842;2023-07-31T19:26:10;97871.13;;;24.13;61.68
929;BME280;451;47.988;7.842;2023-07-31T19:35:17;97875.16;;;24.16;71.70
929;BME280;451;47.988;7.842;2023-07-31T19:44:21;97852.56;;;22.90;77.00
929;BME280;451;47.988;7.842;2023-07-31T19:53:26;97867.13;;;23.35;79.67
929;BME280;451;47.988;7.842;2023-07-31T20:02:29;97857.22;;;22.58;84.58
929;BME280;451;47.988;7.842;2023-07-31T20:11:33;97840.34;;;22.57;81.80
929;BME280;451;47.988;7.842;2023-07-31T20:20:36;97839.16;;;22.28;80.17
929;BME280;451;47.988;7.842;2023-07-31T20:29:41;97838.34;;;22.27;80.97
929;BME280;451;47.988;7.842;2023-07-31T20:38:44;97826.16;;;21.99;78.66
929;BME280;451;47.988;7.842;2023-07-31T20:47:48;97828.47;;;22.33;74.29
929;BME280;451;47.988;7.842;2023-07-31T20:56:52;97809.75;;;22.43;70.24
929;BME280;451;47.988;7.842;2023-07-31T21:05:56;97832.78;;;22.39;73.27
929;BME280;451;47.988;7.842;2023-07-31T21:15:01;97817.66;;;22.18;81.28
929;BME280;451;47.988;7.842;2023-07-31T21:24:06;97716.56;;;21.04;84.28
929;BME280;451;47.988;7.842;2023-07-31T21:33:09;97710.72;;;21.44;77.27
929;BME280;451;47.988;7.842;2023-07-31T21:42:13;97825.53;;;22.29;76.83
929;BME280;451;47.988;7.842;2023-07-31T21:51:16;97802.38;;;22.08;83.61
929;BME280;451;47.988;7.842;2023-07-31T22:00:22;97778.56;;;21.69;85.37
929;BME280;451;47.988;7.842;2023-07-31T22:09:25;97788.91;;;20.92;99.45
929;BME280;451;47.988;7.842;2023-07-31T22:18:29;97753.09;;;20.93;100.00
929;BME280;451;47.988;7.842;2023-07-31T22:27:33;97688.53;;;19.99;100.00
929;BME280;451;47.988;7.842;2023-07-31T22:36:37;97525.28;;;18.33;100.00
929;BME280;451;47.988;7.842;2023-07-31T22:45:44;97669.75;;;20.10;100.00
929;BME280;451;47.988;7.842;2023-07-31T22:54:49;97584.63;;;19.60;100.00
929;BME280;451;47.988;7.842;2023-07-31T23:03:52;97597.09;;;19.38;100.00
929;BME280;451;47.988;7.842;2023-07-31T23:12:57;97662.63;;;19.72;100.00
929;BME280;451;47.988;7.842;2023-07-31T23:22:04;97623.31;;;19.24;100.00
929;BME280;451;47.988;7.842;2023-07-31T23:31:09;97600.94;;;19.91;100.00
929;BME280;451;47.988;7.842;2023-07-31T23:40:12;97548.06;;;19.88;100.00
929;BME280;451;47.988;7.842;2023-07-31T23:49:17;97550.69;;;19.83;100.00
929;BME280;451;47.988;7.842;2023-07-31T23:58:20;97565.72;;;21.37;86.39
